Time;durP1;ratioP1;P1;durP2;ratioP2;P2;SDS_P1;SDS_P2;PMS_P1;PMS_P2;Temp;Humidity;BMP_temperature;BMP_pressure;BME280_temperature;BME280_humidity;BME280_pressure;Samples;Min_cycle;Max_cycle;Signal;HPM_P1;HPM_P2
2022/01/07 00:01:24;;;;;;;15.60;5.50;;;1.30;99.90;;;;;;5091528;28;20253;-71
2022/01/07 00:03:52;;;;;;;18.37;5.00;;;1.30;99.90;;;;;;5088800;28;20202;-71
2022/01/07 00:06:20;;;;;;;13.53;4.67;;;1.20;99.90;;;;;;5087378;28;20201;-71
2022/01/07 00:08:47;;;;;;;11.63;4.70;;;1.10;99.90;;;;;;5087661;28;20243;-71
2022/01/07 00:11:14;;;;;;;11.47;4.33;;;1.10;99.90;;;;;;5085290;28;20248;-71
2022/01/07 00:13:41;;;;;;;12.93;4.73;;;1.00;99.90;;;;;;5092496;28;20709;-71
2022/01/07 00:16:10;;;;;;;16.87;5.00;;;1.00;99.90;;;;;;5076979;28;20198;-71
2022/01/07 00:18:41;;;;;;;14.40;4.40;;;1.30;99.90;;;;;;5088034;28;20205;-71
2022/01/07 00:21:09;;;;;;;11.97;5.23;;;1.30;99.90;;;;;;5092045;28;20206;-71
2022/01/07 00:23:36;;;;;;;12.47;4.70;;;1.30;99.90;;;;;;5087994;28;20594;-71
2022/01/07 00:26:03;;;;;;;12.50;3.90;;;1.40;99.90;;;;;;5075523;28;20241;-71
2022/01/07 00:28:30;;;;;;;16.43;4.67;;;1.20;99.90;;;;;;5092490;28;20201;-71
2022/01/07 00:30:57;;;;;;;11.00;4.57;;;1.30;99.90;;;;;;5072893;28;20857;-71
2022/01/07 00:33:24;;;;;;;14.10;5.37;;;1.20;99.90;;;;;;5077301;28;20202;-71
2022/01/07 00:35:56;;;;;;;13.80;4.50;;;1.30;99.90;;;;;;5074149;28;20195;-71
2022/01/07 00:38:23;;;;;;;17.60;4.73;;;1.40;99.90;;;;;;5077937;28;20684;-71
2022/01/07 00:40:50;;;;;;;11.23;4.30;;;1.40;99.90;;;;;;5081283;28;20246;-71
2022/01/07 00:43:18;;;;;;;14.83;3.80;;;1.40;99.90;;;;;;5085589;28;20226;-71
2022/01/07 00:45:45;;;;;;;14.23;3.87;;;1.50;99.90;;;;;;5084595;28;20229;-71
2022/01/07 00:48:12;;;;;;;12.70;4.13;;;1.40;99.90;;;;;;5070916;28;20653;-71
2022/01/07 00:50:39;;;;;;;12.00;4.20;;;1.40;99.90;;;;;;5083120;28;20460;-71
2022/01/07 00:53:07;;;;;;;13.87;4.13;;;1.40;99.90;;;;;;5082461;28;20549;-71
2022/01/07 00:55:36;;;;;;;8.57;3.50;;;1.60;99.90;;;;;;5092781;28;20711;-71
2022/01/07 00:58:03;;;;;;;12.57;4.00;;;1.60;99.90;;;;;;5086319;28;20202;-71
2022/01/07 01:00:30;;;;;;;8.63;3.60;;;1.70;99.90;;;;;;5087705;28;20283;-71
2022/01/07 01:02:59;;;;;;;12.63;3.83;;;1.70;99.90;;;;;;5076550;28;20230;-71
2022/01/07 01:05:26;;;;;;;8.67;3.80;;;1.60;99.90;;;;;;5077531;28;20237;-71
2022/01/07 01:07:54;;;;;;;11.30;3.57;;;1.70;99.90;;;;;;5090733;28;20206;-71
2022/01/07 01:10:24;;;;;;;14.30;4.60;;;1.70;99.90;;;;;;5077603;28;20229;-71
2022/01/07 01:12:52;;;;;;;12.73;3.93;;;1.90;99.90;;;;;;5091272;28;20245;-71
2022/01/07 01:15:22;;;;;;;10.43;4.30;;;2.00;99.90;;;;;;5072440;28;20195;-71
2022/01/07 01:17:51;;;;;;;10.57;3.93;;;2.00;99.90;;;;;;5077608;28;20548;-71
2022/01/07 01:20:18;;;;;;;11.03;3.73;;;1.90;99.90;;;;;;5083527;28;20249;-71
2022/01/07 01:22:45;;;;;;;10.57;3.83;;;2.00;99.90;;;;;;5076811;28;20257;-71
2022/01/07 01:25:13;;;;;;;12.63;4.63;;;2.00;99.90;;;;;;5086983;28;20778;-71
2022/01/07 01:27:42;;;;;;;10.83;4.40;;;2.00;99.90;;;;;;5078703;28;20198;-71
2022/01/07 01:30:11;;;;;;;17.20;4.27;;;2.00;99.90;;;;;;5071649;28;20203;-71
2022/01/07 01:32:39;;;;;;;13.47;4.37;;;2.30;99.90;;;;;;5074750;28;20270;-71
2022/01/07 01:35:08;;;;;;;14.67;4.20;;;2.20;99.90;;;;;;5081082;28;20203;-71
2022/01/07 01:37:35;;;;;;;15.07;4.33;;;2.30;99.90;;;;;;5082632;28;20643;-71
2022/01/07 01:40:02;;;;;;;13.73;3.60;;;2.10;99.90;;;;;;5086757;28;20576;-71
2022/01/07 01:42:29;;;;;;;12.67;3.90;;;2.10;99.90;;;;;;5090871;28;20745;-71
2022/01/07 01:44:57;;;;;;;11.80;3.97;;;2.10;99.90;;;;;;5083249;28;20197;-71
2022/01/07 01:47:24;;;;;;;15.17;4.43;;;2.00;99.90;;;;;;5089135;28;20254;-71
2022/01/07 01:49:51;;;;;;;9.63;3.57;;;2.00;99.90;;;;;;5086360;28;20612;-71
2022/01/07 01:52:18;;;;;;;11.20;3.90;;;1.90;99.90;;;;;;5077490;28;20647;-71
2022/01/07 01:54:45;;;;;;;16.30;4.63;;;2.00;99.90;;;;;;5088864;28;20255;-71
2022/01/07 01:57:13;;;;;;;13.80;4.83;;;2.00;99.90;;;;;;5088132;28;20205;-71
2022/01/07 01:59:40;;;;;;;13.23;4.83;;;1.90;99.90;;;;;;5090157;28;20232;-71
2022/01/07 02:02:09;;;;;;;12.03;3.83;;;2.00;99.90;;;;;;5076852;28;20221;-71
2022/01/07 02:04:38;;;;;;;13.37;4.23;;;2.00;99.90;;;;;;5072484;28;20289;-71
2022/01/07 02:07:07;;;;;;;10.77;3.97;;;2.00;99.90;;;;;;5084807;28;20240;-71
2022/01/07 02:09:35;;;;;;;11.73;4.10;;;2.10;99.90;;;;;;5091339;28;20198;-71
2022/01/07 02:12:04;;;;;;;13.23;4.27;;;2.30;99.90;;;;;;5085669;28;20674;-71
2022/01/07 02:14:31;;;;;;;12.17;4.03;;;2.30;99.90;;;;;;5084839;28;20197;-71
2022/01/07 02:17:09;;;;;;;10.90;3.90;;;2.20;99.90;;;;;;5071220;28;20638;-71
2022/01/07 02:19:38;;;;;;;8.80;4.30;;;2.30;99.90;;;;;;5087056;28;20233;-71
2022/01/07 02:22:06;;;;;;;11.10;3.73;;;2.40;99.90;;;;;;5087575;28;20624;-71
2022/01/07 02:24:34;;;;;;;12.17;4.03;;;2.50;99.90;;;;;;5076720;28;20198;-71
2022/01/07 02:27:02;;;;;;;9.37;3.60;;;2.50;99.90;;;;;;5088138;28;20296;-70
2022/01/07 02:29:29;;;;;;;12.03;4.10;;;2.60;99.90;;;;;;5090432;28;20201;-71
2022/01/07 02:31:56;;;;;;;8.33;3.87;;;2.50;99.90;;;;;;5088427;28;20198;-70
2022/01/07 02:34:23;;;;;;;15.97;4.70;;;2.50;99.90;;;;;;5088784;28;20241;-70
2022/01/07 02:36:51;;;;;;;11.93;3.97;;;2.50;99.90;;;;;;5074785;28;20271;-70
2022/01/07 02:39:19;;;;;;;14.10;4.17;;;2.40;99.90;;;;;;5090433;28;20484;-70
2022/01/07 02:41:46;;;;;;;12.70;4.00;;;2.50;99.90;;;;;;5089472;28;20201;-70
2022/01/07 02:44:13;;;;;;;9.13;3.77;;;2.40;99.90;;;;;;5089686;28;20250;-70
2022/01/07 02:46:41;;;;;;;13.07;4.53;;;2.50;99.90;;;;;;5086204;28;20205;-70
2022/01/07 02:49:09;;;;;;;18.73;4.43;;;2.50;99.90;;;;;;5089441;28;20327;-70
2022/01/07 02:51:36;;;;;;;12.87;4.33;;;2.60;99.90;;;;;;5089034;28;20202;-70
2022/01/07 02:54:06;;;;;;;15.17;4.13;;;2.60;99.90;;;;;;5075933;28;20205;-70
2022/01/07 02:56:33;;;;;;;10.77;3.87;;;2.60;99.90;;;;;;5089773;28;20273;-70
2022/01/07 02:59:00;;;;;;;15.70;4.80;;;2.50;99.90;;;;;;5093614;28;20261;-70
2022/01/07 03:01:27;;;;;;;12.77;3.80;;;2.50;99.90;;;;;;5086987;28;20685;-70
2022/01/07 03:03:54;;;;;;;16.63;4.77;;;2.60;99.90;;;;;;5077575;28;20225;-70
2022/01/07 03:06:21;;;;;;;9.73;4.57;;;2.50;99.90;;;;;;5078944;28;20256;-70
2022/01/07 03:08:49;;;;;;;11.57;4.57;;;2.60;99.90;;;;;;5080041;28;20223;-70
2022/01/07 03:11:18;;;;;;;11.40;4.30;;;2.50;99.90;;;;;;5083409;28;20252;-70
2022/01/07 03:13:45;;;;;;;13.00;4.23;;;2.50;99.90;;;;;;5081043;28;20202;-70
2022/01/07 03:16:12;;;;;;;12.43;3.93;;;2.50;99.90;;;;;;5080580;28;20247;-70
2022/01/07 03:18:39;;;;;;;13.07;4.43;;;2.60;99.90;;;;;;5082210;28;20201;-70
2022/01/07 03:21:06;;;;;;;13.87;4.20;;;2.50;99.90;;;;;;5093052;28;20625;-70
2022/01/07 03:23:36;;;;;;;13.53;4.57;;;2.50;99.90;;;;;;5092949;28;20257;-70
2022/01/07 03:26:03;;;;;;;10.77;4.03;;;2.50;99.90;;;;;;5087894;28;20197;-70
2022/01/07 03:28:31;;;;;;;13.13;4.00;;;2.50;99.90;;;;;;5088598;28;20194;-70
2022/01/07 03:30:58;;;;;;;10.07;3.80;;;2.50;99.90;;;;;;5077950;28;20244;-70
2022/01/07 03:33:26;;;;;;;12.23;4.13;;;2.50;99.90;;;;;;5084501;28;20248;-70
2022/01/07 03:35:53;;;;;;;12.20;3.80;;;2.50;99.90;;;;;;5084859;28;20613;-70
2022/01/07 03:38:20;;;;;;;11.80;4.30;;;2.50;99.90;;;;;;5093756;28;20240;-70
2022/01/07 03:40:48;;;;;;;13.00;4.70;;;2.50;99.90;;;;;;5085947;28;20202;-70
2022/01/07 03:43:15;;;;;;;13.40;4.00;;;2.50;99.90;;;;;;5093390;28;20217;-70
2022/01/07 03:45:44;;;;;;;8.97;4.23;;;2.60;99.90;;;;;;5078731;28;20198;-70
2022/01/07 03:48:11;;;;;;;15.37;3.90;;;2.60;99.90;;;;;;5084708;28;20224;-70
2022/01/07 03:50:38;;;;;;;13.57;4.33;;;2.70;99.90;;;;;;5079343;28;20208;-70
2022/01/07 03:53:05;;;;;;;13.97;5.30;;;2.70;99.90;;;;;;5091172;28;20205;-70
2022/01/07 03:55:33;;;;;;;7.47;3.33;;;2.70;99.90;;;;;;5085988;28;20629;-70
2022/01/07 03:58:00;;;;;;;9.97;4.07;;;2.70;99.90;;;;;;5074886;28;20203;-70
2022/01/07 04:00:33;;;;;;;11.53;4.10;;;2.60;99.90;;;;;;5077078;28;20230;-69
2022/01/07 04:03:02;;;;;;;10.90;4.00;;;2.60;99.90;;;;;;5088601;28;20213;-70
2022/01/07 04:05:29;;;;;;;11.57;3.73;;;2.60;99.90;;;;;;5082372;28;20534;-70
2022/01/07 04:07:56;;;;;;;11.57;3.63;;;2.70;99.90;;;;;;5092302;28;20206;-69
2022/01/07 04:10:23;;;;;;;12.13;4.80;;;2.70;99.90;;;;;;5093724;28;20274;-69
2022/01/07 04:12:51;;;;;;;14.07;4.00;;;2.70;99.90;;;;;;5088303;28;20198;-69
2022/01/07 04:15:21;;;;;;;11.90;4.57;;;2.70;99.90;;;;;;5083744;28;20271;-69
2022/01/07 04:17:51;;;;;;;12.60;4.33;;;2.70;99.90;;;;;;5072359;28;20564;-69
2022/01/07 04:20:22;;;;;;;16.13;5.03;;;2.70;99.90;;;;;;5082099;28;20207;-70
2022/01/07 04:22:50;;;;;;;15.63;5.40;;;2.80;99.90;;;;;;5072409;28;20226;-69
2022/01/07 04:25:18;;;;;;;14.60;4.77;;;2.70;99.90;;;;;;5097343;28;20197;-69
2022/01/07 04:27:47;;;;;;;19.23;4.73;;;2.70;99.90;;;;;;5087790;28;20206;-70
2022/01/07 04:30:15;;;;;;;13.07;4.80;;;2.70;99.90;;;;;;5090902;28;20656;-70
2022/01/07 04:32:42;;;;;;;9.87;4.57;;;2.70;99.90;;;;;;5085905;28;20238;-72
2022/01/07 04:35:11;;;;;;;14.03;5.33;;;2.70;99.90;;;;;;5073043;28;20213;-72
2022/01/07 04:37:40;;;;;;;12.30;5.20;;;2.70;99.90;;;;;;5080519;28;20237;-72
2022/01/07 04:40:10;;;;;;;13.37;5.00;;;2.80;99.90;;;;;;5091589;28;20257;-72
2022/01/07 04:42:37;;;;;;;12.57;4.73;;;2.80;99.90;;;;;;5091501;28;20201;-72
2022/01/07 04:45:05;;;;;;;12.70;4.50;;;2.70;99.90;;;;;;5076401;28;20252;-72
2022/01/07 04:47:35;;;;;;;14.23;4.70;;;2.70;99.90;;;;;;5074376;28;20205;-72
2022/01/07 04:50:02;;;;;;;11.77;4.53;;;2.70;99.90;;;;;;5090220;28;20198;-72
2022/01/07 04:52:29;;;;;;;15.43;5.47;;;2.80;99.90;;;;;;5088774;28;20645;-72
2022/01/07 04:54:58;;;;;;;14.70;5.30;;;2.80;99.90;;;;;;5084739;28;20708;-72
2022/01/07 04:57:25;;;;;;;11.03;4.50;;;2.80;99.90;;;;;;5092202;28;20202;-72
2022/01/07 04:59:52;;;;;;;12.53;4.97;;;2.80;99.90;;;;;;5080209;28;20190;-72
2022/01/07 05:02:19;;;;;;;19.17;5.27;;;2.80;99.90;;;;;;5092089;28;20721;-72
2022/01/07 05:04:46;;;;;;;12.33;5.73;;;2.80;99.90;;;;;;5080712;28;20214;-72
2022/01/07 05:07:13;;;;;;;13.67;4.77;;;2.80;99.90;;;;;;5092716;28;20198;-72
2022/01/07 05:09:40;;;;;;;13.33;5.03;;;2.80;99.90;;;;;;5081831;28;20220;-73
2022/01/07 05:12:09;;;;;;;16.27;4.27;;;2.70;99.90;;;;;;5091767;28;20709;-72
2022/01/07 05:14:36;;;;;;;18.60;4.60;;;2.80;99.90;;;;;;5083583;28;20202;-72
2022/01/07 05:17:04;;;;;;;12.97;4.43;;;2.80;99.90;;;;;;5071379;28;20552;-72
2022/01/07 05:19:31;;;;;;;12.13;4.60;;;2.80;99.90;;;;;;5088144;28;20202;-72
2022/01/07 05:21:58;;;;;;;15.10;4.93;;;2.80;99.90;;;;;;5091213;28;20201;-72
2022/01/07 05:24:25;;;;;;;12.13;4.40;;;2.80;99.90;;;;;;5087062;28;20253;-72
2022/01/07 05:26:52;;;;;;;12.23;5.07;;;2.90;99.90;;;;;;5083582;28;20205;-72
2022/01/07 05:29:20;;;;;;;8.80;4.17;;;2.80;99.90;;;;;;5082090;28;20194;-72
2022/01/07 05:31:47;;;;;;;15.50;5.03;;;2.80;99.90;;;;;;5090200;28;20197;-72
2022/01/07 05:34:14;;;;;;;12.53;5.70;;;2.90;99.90;;;;;;5082472;28;20203;-72
2022/01/07 05:36:41;;;;;;;12.63;4.53;;;2.90;99.90;;;;;;5080663;28;20535;-72
2022/01/07 05:39:08;;;;;;;10.90;4.60;;;2.80;99.90;;;;;;5082529;28;20722;-72
2022/01/07 05:41:35;;;;;;;15.00;4.50;;;2.80;99.90;;;;;;5085007;28;20262;-72
2022/01/07 05:44:02;;;;;;;11.17;4.60;;;3.00;99.90;;;;;;5090608;28;20221;-72
2022/01/07 05:46:30;;;;;;;15.10;5.07;;;2.90;99.90;;;;;;5089125;28;20244;-72
2022/01/07 05:48:57;;;;;;;12.07;5.37;;;2.90;99.90;;;;;;5086226;28;20229;-72
2022/01/07 05:51:24;;;;;;;15.60;5.30;;;2.80;99.90;;;;;;5069614;28;20199;-72
2022/01/07 05:53:51;;;;;;;11.70;4.90;;;2.90;99.90;;;;;;5081522;28;20205;-71
2022/01/07 05:56:18;;;;;;;12.70;5.07;;;2.80;99.90;;;;;;5091095;28;20194;-71
2022/01/07 05:58:45;;;;;;;15.53;5.47;;;2.80;99.90;;;;;;5089738;28;20625;-71
2022/01/07 06:01:12;;;;;;;17.23;4.97;;;2.80;99.90;;;;;;5091369;28;20233;-71
2022/01/07 06:03:41;;;;;;;9.73;5.27;;;2.90;99.90;;;;;;5091245;28;20236;-71
2022/01/07 06:06:08;;;;;;;14.07;5.57;;;2.80;99.90;;;;;;5089990;28;20524;-71
2022/01/07 06:08:35;;;;;;;11.50;4.93;;;2.90;99.90;;;;;;5090308;28;20270;-71
2022/01/07 06:11:03;;;;;;;14.40;5.10;;;2.90;99.90;;;;;;5090746;28;20427;-71
2022/01/07 06:13:30;;;;;;;10.13;4.63;;;2.90;99.90;;;;;;5089716;28;20271;-71
2022/01/07 06:15:57;;;;;;;12.90;4.50;;;2.90;99.90;;;;;;5073780;28;20259;-71
2022/01/07 06:18:24;;;;;;;16.53;5.37;;;2.90;99.90;;;;;;5080293;28;20233;-70
2022/01/07 06:20:52;;;;;;;13.10;5.20;;;2.90;99.90;;;;;;5077961;28;20263;-71
2022/01/07 06:23:20;;;;;;;10.90;5.10;;;2.90;99.90;;;;;;5074225;28;20221;-72
2022/01/07 06:25:49;;;;;;;13.83;5.67;;;2.90;99.90;;;;;;5071285;28;20293;-71
2022/01/07 06:28:16;;;;;;;10.10;5.17;;;2.80;99.90;;;;;;5072764;28;20256;-71
2022/01/07 06:30:44;;;;;;;13.40;5.73;;;2.80;99.90;;;;;;5074191;28;20284;-74
2022/01/07 06:33:11;;;;;;;14.67;5.27;;;2.80;99.90;;;;;;5088527;28;20233;-71
2022/01/07 06:35:38;;;;;;;9.43;4.90;;;2.80;99.90;;;;;;5090946;28;20263;-71
2022/01/07 06:38:06;;;;;;;15.80;6.77;;;2.80;99.90;;;;;;5089905;28;20259;-71
2022/01/07 06:40:33;;;;;;;19.07;8.90;;;2.90;99.90;;;;;;5088001;28;20664;-70
2022/01/07 06:43:01;;;;;;;14.13;5.60;;;2.80;99.90;;;;;;5082421;28;20711;-72
2022/01/07 06:45:28;;;;;;;16.37;5.90;;;2.80;99.90;;;;;;5090601;28;20229;-71
2022/01/07 06:47:55;;;;;;;13.30;6.13;;;2.80;99.90;;;;;;5089333;28;20247;-71
2022/01/07 06:50:22;;;;;;;13.47;5.60;;;2.70;99.90;;;;;;5090988;28;20205;-71
2022/01/07 06:52:49;;;;;;;20.77;6.20;;;2.70;99.90;;;;;;5090002;28;20198;-71
2022/01/07 06:55:18;;;;;;;13.03;5.73;;;2.70;99.90;;;;;;5090780;28;20205;-70
2022/01/07 06:57:45;;;;;;;13.33;5.67;;;2.70;99.90;;;;;;5091883;28;20674;-71
2022/01/07 07:00:12;;;;;;;12.90;6.47;;;2.60;99.90;;;;;;5098859;28;20277;-71
2022/01/07 07:02:39;;;;;;;13.57;5.70;;;2.60;99.90;;;;;;5091637;28;20198;-72
2022/01/07 07:05:07;;;;;;;16.03;6.53;;;2.50;99.90;;;;;;5089045;28;20626;-71
2022/01/07 07:07:34;;;;;;;16.43;6.70;;;2.50;99.90;;;;;;5092425;28;20228;-71
2022/01/07 07:10:01;;;;;;;16.10;6.37;;;2.40;99.90;;;;;;5093327;28;20250;-71
2022/01/07 07:12:29;;;;;;;11.27;7.10;;;2.30;99.90;;;;;;5089803;28;20632;-72
2022/01/07 07:14:56;;;;;;;17.87;6.97;;;2.30;99.90;;;;;;5091440;28;20202;-71
2022/01/07 07:17:24;;;;;;;13.70;6.53;;;2.20;99.90;;;;;;5083730;28;20234;-71
2022/01/07 07:19:52;;;;;;;16.47;7.13;;;2.30;99.90;;;;;;5090535;28;20210;-71
2022/01/07 07:22:18;;;;;;;17.03;6.90;;;2.20;99.90;;;;;;5089646;28;20201;-71
2022/01/07 07:24:45;;;;;;;17.90;7.37;;;2.30;99.90;;;;;;5092917;28;20217;-72
2022/01/07 07:27:12;;;;;;;12.77;5.83;;;2.30;99.90;;;;;;5091419;28;20225;-71
2022/01/07 07:29:41;;;;;;;15.00;6.83;;;2.20;99.90;;;;;;5094363;28;20201;-72
2022/01/07 07:32:09;;;;;;;12.13;6.73;;;2.30;99.90;;;;;;5088004;28;20644;-71
2022/01/07 07:34:58;;;;;;;16.23;6.80;;;2.20;99.90;;;;;;5088778;28;20205;-72
2022/01/07 07:37:25;;;;;;;16.43;6.70;;;2.20;99.90;;;;;;5088993;28;20212;-72
2022/01/07 07:39:52;;;;;;;13.03;6.80;;;2.20;99.90;;;;;;5089230;28;20656;-72
2022/01/07 07:42:19;;;;;;;14.20;6.47;;;2.30;99.90;;;;;;5073841;28;20252;-72
2022/01/07 07:44:48;;;;;;;11.20;5.80;;;2.20;99.90;;;;;;5092669;28;20253;-71
2022/01/07 07:47:15;;;;;;;13.07;6.47;;;2.20;99.90;;;;;;5091409;28;20257;-72
2022/01/07 07:49:42;;;;;;;15.17;7.40;;;2.20;99.90;;;;;;5088542;28;20233;-71
2022/01/07 07:52:09;;;;;;;15.70;6.83;;;2.20;99.90;;;;;;5093181;28;20255;-71
2022/01/07 07:54:37;;;;;;;16.53;7.67;;;2.30;99.90;;;;;;5091972;28;20259;-72
2022/01/07 07:57:05;;;;;;;13.90;6.80;;;2.30;99.90;;;;;;5092823;28;20210;-72
2022/01/07 07:59:32;;;;;;;13.43;6.20;;;2.30;99.90;;;;;;5092422;28;20201;-72
2022/01/07 08:02:01;;;;;;;15.03;7.30;;;2.40;99.90;;;;;;5092367;28;20201;-71
2022/01/07 08:04:29;;;;;;;13.30;6.40;;;2.40;99.90;;;;;;5091678;28;20218;-72
2022/01/07 08:06:56;;;;;;;12.77;6.23;;;2.40;99.90;;;;;;5089716;28;20267;-71
2022/01/07 08:09:23;;;;;;;11.50;5.73;;;2.50;99.90;;;;;;5092019;28;20198;-72
2022/01/07 08:11:53;;;;;;;12.93;6.20;;;2.50;99.90;;;;;;5093272;28;20208;-72
2022/01/07 08:17:08;;;;;;;13.63;5.60;;;2.50;99.90;;;;;;5090862;28;20670;-72
2022/01/07 08:19:36;;;;;;;10.47;5.57;;;2.50;99.90;;;;;;5091889;28;20193;-71
2022/01/07 08:22:04;;;;;;;11.40;5.37;;;2.60;99.90;;;;;;5093415;28;20280;-72
2022/01/07 08:24:31;;;;;;;13.63;6.50;;;2.70;99.90;;;;;;5100287;28;20263;-73
2022/01/07 08:26:58;;;;;;;9.00;5.20;;;2.70;99.90;;;;;;5100861;28;20202;-71
2022/01/07 08:29:30;;;;;;;9.53;5.23;;;2.70;99.90;;;;;;5100269;28;20201;-71
2022/01/07 08:34:58;;;;;;;11.97;5.43;;;2.70;99.90;;;;;;5094094;28;20246;-72
2022/01/07 08:37:26;;;;;;;11.50;6.00;;;2.70;99.90;;;;;;5099709;28;20243;-71
2022/01/07 08:39:54;;;;;;;9.87;5.47;;;2.70;99.90;;;;;;5094941;28;20278;-73
2022/01/07 08:42:22;;;;;;;12.47;5.73;;;2.70;99.90;;;;;;5092977;28;20263;-72
2022/01/07 08:44:51;;;;;;;12.77;6.17;;;2.70;99.90;;;;;;5096229;28;20229;-72
2022/01/07 08:47:19;;;;;;;9.43;5.33;;;2.80;99.90;;;;;;5097106;28;20206;-72
2022/01/07 08:49:49;;;;;;;12.33;5.57;;;2.80;99.90;;;;;;5094255;28;20202;-72
2022/01/07 08:52:17;;;;;;;12.20;5.63;;;2.70;99.90;;;;;;5093862;28;20724;-73
2022/01/07 08:54:44;;;;;;;9.57;5.43;;;2.80;99.90;;;;;;5095936;28;20618;-72
2022/01/07 08:57:11;;;;;;;10.97;5.60;;;2.80;99.90;;;;;;5095641;28;20200;-72
2022/01/07 08:59:38;;;;;;;9.57;5.20;;;2.80;99.90;;;;;;5104312;27;20590;-72
2022/01/07 09:02:06;;;;;;;10.80;5.63;;;2.80;99.90;;;;;;5094555;28;20267;-72
2022/01/07 09:04:33;;;;;;;11.17;5.27;;;2.90;99.90;;;;;;5088406;28;20275;-72
2022/01/07 09:07:01;;;;;;;11.07;5.60;;;2.90;99.90;;;;;;5095141;28;20558;-72
2022/01/07 09:09:28;;;;;;;11.80;6.00;;;2.90;99.90;;;;;;5105682;27;20628;-73
2022/01/07 09:11:55;;;;;;;10.40;5.57;;;2.90;99.90;;;;;;5082481;28;20198;-72
2022/01/07 09:14:22;;;;;;;10.00;5.63;;;2.90;99.90;;;;;;5092163;28;20214;-72
2022/01/07 09:16:50;;;;;;;13.03;5.97;;;2.90;99.90;;;;;;5086887;28;20204;-72
2022/01/07 09:19:18;;;;;;;8.97;5.50;;;3.00;99.90;;;;;;5095828;28;20652;-72
2022/01/07 09:21:45;;;;;;;11.50;5.83;;;2.90;99.90;;;;;;5094617;28;20209;-72
2022/01/07 09:24:13;;;;;;;10.17;5.70;;;2.90;99.90;;;;;;5095705;28;20325;-72
2022/01/07 09:26:40;;;;;;;8.23;5.03;;;2.90;99.90;;;;;;5096215;28;20223;-72
2022/01/07 09:29:07;;;;;;;8.83;4.83;;;3.00;99.90;;;;;;5091464;28;20660;-72
2022/01/07 09:31:34;;;;;;;10.80;5.20;;;3.00;99.90;;;;;;5093100;28;20251;-72
2022/01/07 09:34:02;;;;;;;7.57;5.27;;;2.90;99.90;;;;;;5096775;28;20273;-72
2022/01/07 09:36:29;;;;;;;12.07;5.70;;;3.00;99.90;;;;;;5093288;28;20208;-72
2022/01/07 09:38:57;;;;;;;10.10;5.93;;;3.00;99.90;;;;;;5094883;28;20197;-72
2022/01/07 09:41:26;;;;;;;10.73;5.40;;;3.00;99.90;;;;;;5093605;28;20201;-72
2022/01/07 09:43:53;;;;;;;11.23;5.83;;;3.00;99.90;;;;;;5092027;28;20254;-72
2022/01/07 09:46:20;;;;;;;8.10;5.17;;;3.00;99.90;;;;;;5090406;28;20229;-72
2022/01/07 09:48:47;;;;;;;11.33;5.73;;;3.00;99.90;;;;;;5097130;28;20214;-72
2022/01/07 09:51:15;;;;;;;11.17;6.03;;;3.00;99.90;;;;;;5081349;28;20206;-72
2022/01/07 09:53:43;;;;;;;8.50;5.33;;;3.00;99.90;;;;;;5082369;28;20202;-72
2022/01/07 09:56:11;;;;;;;11.53;5.83;;;3.00;99.90;;;;;;5086545;28;20194;-73
2022/01/07 09:58:40;;;;;;;10.87;5.57;;;3.00;99.90;;;;;;5084508;28;20237;-70
2022/01/07 10:01:10;;;;;;;9.83;5.40;;;3.10;99.90;;;;;;5083219;28;20190;-75
2022/01/07 10:03:39;;;;;;;8.17;4.73;;;3.10;99.90;;;;;;5086228;28;20248;-75
2022/01/07 10:06:21;;;;;;;8.27;4.73;;;3.10;99.90;;;;;;5083138;28;20228;-75
2022/01/07 10:09:00;;;;;;;11.43;5.57;;;3.20;99.90;;;;;;5093737;28;20273;-75
2022/01/07 10:11:27;;;;;;;8.97;5.03;;;3.20;99.90;;;;;;5086288;28;20205;-75
2022/01/07 10:14:16;;;;;;;6.93;4.63;;;3.20;99.90;;;;;;5095762;28;20206;-75
2022/01/07 10:16:52;;;;;;;9.53;4.93;;;3.20;99.90;;;;;;5092389;28;20198;-75
2022/01/07 10:19:37;;;;;;;8.97;4.90;;;3.30;99.90;;;;;;5091252;28;20205;-75
2022/01/07 10:22:06;;;;;;;10.33;5.17;;;3.30;99.90;;;;;;5093290;28;20637;-75
2022/01/07 10:24:53;;;;;;;11.27;5.37;;;3.30;99.90;;;;;;5084861;28;20233;-75
2022/01/07 10:27:20;;;;;;;10.63;5.37;;;3.30;99.90;;;;;;5093885;28;20201;-75
2022/01/07 10:29:48;;;;;;;11.43;5.90;;;3.30;99.90;;;;;;5091246;28;20683;-74
2022/01/07 10:32:27;;;;;;;8.63;5.10;;;3.30;99.90;;;;;;5093239;28;20230;-74
2022/01/07 10:35:14;;;;;;;8.03;5.40;;;3.30;99.90;;;;;;5092480;28;20196;-74
2022/01/07 10:37:52;;;;;;;7.40;4.70;;;3.30;99.90;;;;;;5083967;28;20836;-74
2022/01/07 10:40:31;;;;;;;7.70;4.80;;;3.40;99.90;;;;;;5083500;28;20228;-74
2022/01/07 10:43:09;;;;;;;10.03;4.87;;;3.40;99.90;;;;;;5080691;28;20197;-74
2022/01/07 10:45:39;;;;;;;10.33;5.20;;;3.40;99.90;;;;;;5082266;28;20256;-74
2022/01/07 10:48:07;;;;;;;10.87;5.20;;;3.50;99.90;;;;;;5088877;28;20206;-74
2022/01/07 10:50:38;;;;;;;8.00;4.90;;;3.50;99.90;;;;;;5094568;28;20202;-73
2022/01/07 10:53:19;;;;;;;10.07;5.13;;;3.50;99.90;;;;;;5094123;28;20202;-73
2022/01/07 10:56:06;;;;;;;8.33;5.03;;;3.50;99.90;;;;;;5090531;28;20242;-74
2022/01/07 10:58:56;;;;;;;9.97;5.83;;;3.60;99.90;;;;;;5090371;28;20580;-71
2022/01/07 11:01:39;;;;;;;8.63;4.80;;;3.60;99.90;;;;;;5088589;28;20367;-72
2022/01/07 11:04:08;;;;;;;8.93;5.20;;;3.60;99.90;;;;;;5085988;28;20267;-74
2022/01/07 11:06:37;;;;;;;9.63;4.97;;;3.60;99.90;;;;;;5099476;28;20269;-74
2022/01/07 11:09:09;;;;;;;9.27;5.40;;;3.60;99.90;;;;;;5090369;28;20219;-75
2022/01/07 11:11:44;;;;;;;8.80;5.07;;;3.60;99.90;;;;;;5088660;28;20204;-75
2022/01/07 11:14:16;;;;;;;11.43;6.40;;;3.60;99.90;;;;;;5088964;28;20677;-75
2022/01/07 11:16:44;;;;;;;8.63;5.00;;;3.60;99.90;;;;;;5094143;28;20206;-74
2022/01/07 11:19:12;;;;;;;9.43;5.20;;;3.60;99.90;;;;;;5091083;28;20206;-74
2022/01/07 11:21:41;;;;;;;7.63;4.77;;;3.60;99.90;;;;;;5094308;28;20201;-75
2022/01/07 11:24:37;;;;;;;8.47;4.90;;;3.60;99.90;;;;;;5098323;28;20197;-75
2022/01/07 11:27:07;;;;;;;8.50;4.80;;;3.60;99.90;;;;;;5095092;28;20565;-75
2022/01/07 11:29:38;;;;;;;7.50;4.70;;;3.70;99.90;;;;;;5095353;28;20206;-75
2022/01/07 11:32:35;;;;;;;10.83;5.50;;;3.70;99.90;;;;;;5097565;28;20278;-75
2022/01/07 11:35:47;;;;;;;8.43;5.03;;;3.70;99.90;;;;;;5095245;28;20209;-75
2022/01/07 11:38:39;;;;;;;11.63;5.10;;;3.80;99.90;;;;;;5095242;28;20205;-75
2022/01/07 11:41:12;;;;;;;9.23;5.07;;;3.80;99.90;;;;;;5095911;28;20254;-75
2022/01/07 11:43:42;;;;;;;9.03;5.03;;;3.80;99.90;;;;;;5094310;28;20197;-75
2022/01/07 11:46:28;;;;;;;8.83;5.00;;;3.90;99.90;;;;;;5093335;28;20284;-75
2022/01/07 11:48:59;;;;;;;8.63;5.20;;;3.90;99.90;;;;;;5097320;28;20213;-75
2022/01/07 11:51:37;;;;;;;10.97;5.73;;;3.90;99.90;;;;;;5095290;28;20206;-75
2022/01/07 11:54:09;;;;;;;10.40;5.57;;;3.90;99.90;;;;;;5094580;28;20205;-75
2022/01/07 11:56:38;;;;;;;11.37;5.33;;;3.90;99.90;;;;;;5099107;28;20251;-75
2022/01/07 11:59:25;;;;;;;10.47;4.93;;;3.90;99.90;;;;;;5099654;28;20254;-75
2022/01/07 12:02:03;;;;;;;8.13;5.03;;;3.90;99.90;;;;;;5094190;28;20271;-75
2022/01/07 12:04:33;;;;;;;7.90;5.07;;;3.90;99.90;;;;;;5097470;28;20213;-75
2022/01/07 12:07:02;;;;;;;9.97;5.00;;;4.00;99.90;;;;;;5091701;28;20226;-75
2022/01/07 12:09:37;;;;;;;10.23;5.63;;;3.90;99.90;;;;;;5096051;28;20213;-75
2022/01/07 12:12:07;;;;;;;9.83;5.10;;;3.90;99.90;;;;;;5093203;28;20232;-75
2022/01/07 12:14:38;;;;;;;7.63;4.87;;;3.90;99.90;;;;;;5090370;28;20209;-75
2022/01/07 12:17:08;;;;;;;9.70;4.97;;;3.90;99.90;;;;;;5088605;28;20240;-75
2022/01/07 12:20:18;;;;;;;7.80;4.70;;;3.90;99.90;;;;;;5088241;28;20283;-76
2022/01/07 12:22:55;;;;;;;10.67;4.90;;;3.90;99.90;;;;;;5082776;28;20234;-75
2022/01/07 12:25:24;;;;;;;9.03;4.70;;;3.90;99.90;;;;;;5083826;28;20229;-76
2022/01/07 12:28:04;;;;;;;7.67;4.90;;;3.90;99.90;;;;;;5091931;28;20284;-76
2022/01/07 12:30:32;;;;;;;7.23;4.20;;;3.90;99.90;;;;;;5089784;28;20602;-75
2022/01/07 12:33:07;;;;;;;6.73;4.60;;;3.90;99.90;;;;;;5081556;28;20716;-75
2022/01/07 12:35:34;;;;;;;8.30;4.43;;;3.90;99.90;;;;;;5087440;28;20617;-75
2022/01/07 12:38:14;;;;;;;7.00;4.33;;;3.90;99.90;;;;;;5091008;28;20228;-75
2022/01/07 12:40:41;;;;;;;7.03;4.13;;;3.90;99.90;;;;;;5091450;28;20246;-75
2022/01/07 12:43:08;;;;;;;10.93;4.27;;;3.90;99.90;;;;;;5088695;28;20254;-75
2022/01/07 12:45:37;;;;;;;8.13;5.00;;;3.90;99.90;;;;;;5089925;28;20273;-75
2022/01/07 12:48:05;;;;;;;8.97;5.20;;;3.90;99.90;;;;;;5086247;28;20456;-75
2022/01/07 12:50:36;;;;;;;7.60;4.57;;;3.90;99.90;;;;;;5093941;28;20565;-75
2022/01/07 12:53:06;;;;;;;8.70;4.97;;;3.90;99.90;;;;;;5085380;28;20205;-75
2022/01/07 12:55:33;;;;;;;8.30;4.50;;;3.90;99.90;;;;;;5090283;28;20307;-72
2022/01/07 12:58:02;;;;;;;7.23;4.20;;;3.90;99.90;;;;;;5093712;28;20208;-73
2022/01/07 13:00:31;;;;;;;8.47;4.77;;;3.90;99.90;;;;;;5085578;28;20205;-72
2022/01/07 13:02:59;;;;;;;8.47;4.07;;;4.00;99.90;;;;;;5092045;28;20213;-73
2022/01/07 13:05:28;;;;;;;8.17;4.60;;;4.00;99.90;;;;;;5089814;28;20229;-72
2022/01/07 13:07:57;;;;;;;9.07;4.63;;;4.00;99.90;;;;;;5091664;28;20205;-72